Time;durP1;ratioP1;P1;durP2;ratioP2;P2;SDS_P1;SDS_P2;PMS_P1;PMS_P2;Temp;Humidity;BMP_temperature;BMP_pressure;BME280_temperature;BME280_humidity;BME280_pressure;Samples;Min_cycle;Max_cycle;Signal;HPM_P1;HPM_P2
2024/01/29 00:01:50;;;;;;;17.50;10.73;;;;;1.90;99689.00;;;;5091106;28;20067;-67
2024/01/29 00:04:17;;;;;;;14.10;9.00;;;;;1.80;99697.00;;;;5094558;28;20055;-66
2024/01/29 00:06:44;;;;;;;10.68;7.40;;;;;1.80;99688.00;;;;5093487;28;20111;-67
2024/01/29 00:09:11;;;;;;;11.98;7.10;;;;;1.70;99682.00;;;;5093139;28;20049;-67
2024/01/29 00:11:37;;;;;;;11.10;6.57;;;;;1.70;99686.00;;;;5093680;28;20051;-66
2024/01/29 00:14:05;;;;;;;8.35;5.35;;;;;1.80;99687.00;;;;5096266;28;20045;-66
2024/01/29 00:16:32;;;;;;;8.25;5.30;;;;;1.80;99674.00;;;;5088993;28;20052;-66
2024/01/29 00:18:59;;;;;;;8.60;4.75;;;;;1.80;99678.00;;;;5091075;28;20064;-68
2024/01/29 00:21:26;;;;;;;7.47;4.85;;;;;1.90;99690.00;;;;5092031;28;20056;-65
2024/01/29 00:23:54;;;;;;;6.97;4.22;;;;;1.80;99680.00;;;;5084644;28;20489;-67
2024/01/29 00:26:20;;;;;;;5.20;4.00;;;;;1.80;99677.00;;;;5081075;28;20090;-65
2024/01/29 00:28:47;;;;;;;6.93;4.15;;;;;1.80;99677.00;;;;5079947;28;20068;-66
2024/01/29 00:31:16;;;;;;;7.88;4.78;;;;;1.60;99676.00;;;;5080368;28;20048;-66
2024/01/29 00:33:43;;;;;;;8.90;5.00;;;;;1.50;99670.00;;;;5080525;28;20194;-65
2024/01/29 00:36:10;;;;;;;8.98;4.75;;;;;1.60;99670.00;;;;5086321;28;20044;-67
2024/01/29 00:38:36;;;;;;;6.47;4.60;;;;;1.50;99676.00;;;;5083070;28;20100;-67
2024/01/29 00:41:04;;;;;;;8.32;4.82;;;;;1.40;99671.00;;;;5080119;28;20040;-66
2024/01/29 00:43:30;;;;;;;5.97;4.22;;;;;1.40;99671.00;;;;5076594;28;20116;-67
2024/01/29 00:45:57;;;;;;;5.30;4.00;;;;;1.30;99659.00;;;;5078360;28;20064;-66
2024/01/29 00:48:25;;;;;;;6.30;4.20;;;;;1.40;99669.00;;;;5078106;28;20040;-67
2024/01/29 00:50:52;;;;;;;7.05;4.43;;;;;1.40;99664.00;;;;5067561;28;20104;-66
2024/01/29 00:53:19;;;;;;;8.52;4.10;;;;;1.40;99664.00;;;;5078765;28;20049;-66
2024/01/29 00:55:46;;;;;;;6.53;4.63;;;;;1.60;99666.00;;;;5074048;28;20079;-66
2024/01/29 00:58:14;;;;;;;5.78;4.15;;;;;1.60;99664.00;;;;5075619;28;20198;-66
2024/01/29 01:00:43;;;;;;;7.18;4.93;;;;;1.70;99659.00;;;;5074064;28;20049;-67
2024/01/29 01:03:10;;;;;;;6.80;4.07;;;;;1.70;99659.00;;;;5074296;28;20041;-66
2024/01/29 01:05:37;;;;;;;5.40;4.20;;;;;1.70;99663.00;;;;5075277;28;20045;-66
2024/01/29 01:08:04;;;;;;;7.18;4.47;;;;;1.70;99661.00;;;;5075103;28;20083;-66
2024/01/29 01:10:31;;;;;;;6.55;5.10;;;;;1.70;99655.00;;;;5073899;28;20051;-68
2024/01/29 01:12:57;;;;;;;6.07;4.55;;;;;1.60;99661.00;;;;5074788;28;20049;-67
2024/01/29 01:15:24;;;;;;;10.00;5.32;;;;;1.60;99653.00;;;;5073975;28;20040;-68
2024/01/29 01:17:51;;;;;;;8.35;5.50;;;;;1.70;99661.00;;;;5074664;28;20044;-67
2024/01/29 01:20:18;;;;;;;9.95;6.57;;;;;1.60;99657.00;;;;5073075;28;20056;-67
2024/01/29 01:22:44;;;;;;;12.68;5.85;;;;;1.60;99661.00;;;;5074434;28;20079;-66
2024/01/29 01:25:11;;;;;;;8.15;6.30;;;;;1.60;99657.00;;;;5073756;28;20048;-67
2024/01/29 01:27:37;;;;;;;10.85;7.30;;;;;1.60;99658.00;;;;5074282;28;20040;-66
2024/01/29 01:30:05;;;;;;;15.27;7.07;;;;;1.60;99661.00;;;;5073771;28;20047;-68
2024/01/29 01:32:32;;;;;;;13.77;7.50;;;;;1.60;99655.00;;;;5074096;28;20076;-68
2024/01/29 01:34:59;;;;;;;11.00;6.63;;;;;1.70;99674.00;;;;5072488;28;20462;-67
2024/01/29 01:37:25;;;;;;;10.00;6.50;;;;;1.80;99663.00;;;;5072938;28;20056;-67
2024/01/29 01:39:52;;;;;;;7.93;6.13;;;;;1.80;99655.00;;;;5074024;28;20049;-67
2024/01/29 01:42:20;;;;;;;10.93;6.15;;;;;1.80;99663.00;;;;5072964;28;20045;-67
2024/01/29 01:44:47;;;;;;;7.72;6.32;;;;;1.80;99656.00;;;;5071061;28;20124;-66
2024/01/29 01:47:14;;;;;;;9.93;6.53;;;;;1.80;99651.00;;;;5073746;28;20124;-67
2024/01/29 01:49:40;;;;;;;9.70;5.82;;;;;1.80;99665.00;;;;5073774;28;20044;-65
2024/01/29 01:52:08;;;;;;;11.48;5.63;;;;;1.80;99666.00;;;;5074449;28;20060;-66
2024/01/29 01:54:37;;;;;;;15.02;7.13;;;;;1.70;99660.00;;;;5073669;28;20139;-65
2024/01/29 01:57:04;;;;;;;10.57;6.35;;;;;1.70;99663.00;;;;5075392;28;20086;-68
2024/01/29 01:59:33;;;;;;;8.77;6.10;;;;;1.70;99660.00;;;;5075614;28;20132;-65
2024/01/29 02:02:00;;;;;;;10.27;6.57;;;;;1.60;99660.00;;;;5074870;28;20036;-65
2024/01/29 02:04:27;;;;;;;10.07;6.32;;;;;1.50;99654.00;;;;5072047;28;20139;-65
2024/01/29 02:06:54;;;;;;;9.23;6.35;;;;;1.50;99650.00;;;;5072576;28;20135;-65
2024/01/29 02:09:21;;;;;;;10.68;6.10;;;;;1.50;99657.00;;;;5073299;28;20062;-65
2024/01/29 02:11:48;;;;;;;11.07;5.90;;;;;1.60;99657.00;;;;5073410;28;20045;-65
2024/01/29 02:14:18;;;;;;;8.88;5.80;;;;;1.70;99658.00;;;;5072957;28;20123;-65
2024/01/29 02:16:45;;;;;;;8.32;5.95;;;;;1.70;99658.00;;;;5073594;28;20405;-65
2024/01/29 02:19:15;;;;;;;9.50;6.03;;;;;1.70;99649.00;;;;5073385;28;20063;-65
2024/01/29 02:21:43;;;;;;;9.23;5.90;;;;;1.70;99657.00;;;;5073653;28;20448;-66
2024/01/29 02:24:10;;;;;;;11.07;6.20;;;;;1.70;99651.00;;;;5072803;28;20048;-65
2024/01/29 02:26:37;;;;;;;8.10;5.35;;;;;1.60;99664.00;;;;5071685;28;20549;-65
2024/01/29 02:29:03;;;;;;;9.77;5.95;;;;;1.60;99663.00;;;;5073021;28;20037;-65
2024/01/29 02:31:32;;;;;;;7.68;6.15;;;;;1.50;99670.00;;;;5071565;28;20048;-65
2024/01/29 02:33:59;;;;;;;9.43;6.38;;;;;1.50;99661.00;;;;5072621;28;20044;-65
2024/01/29 02:36:26;;;;;;;9.70;6.13;;;;;1.40;99659.00;;;;5071739;28;20102;-65
2024/01/29 02:38:52;;;;;;;12.57;7.65;;;;;1.40;99649.00;;;;5054899;28;20795;-66
2024/01/29 02:41:19;;;;;;;7.68;5.78;;;;;1.40;99657.00;;;;5073021;28;20044;-66
2024/01/29 02:43:45;;;;;;;9.68;6.13;;;;;1.30;99646.00;;;;5072319;28;20045;-66
2024/01/29 02:46:12;;;;;;;10.20;6.25;;;;;1.40;99647.00;;;;5073143;28;20123;-65
2024/01/29 02:48:39;;;;;;;8.45;6.40;;;;;1.40;99649.00;;;;5072803;28;20040;-66
2024/01/29 02:51:06;;;;;;;9.73;6.28;;;;;1.40;99649.00;;;;5072630;28;20040;-66
2024/01/29 02:53:33;;;;;;;8.05;6.00;;;;;1.40;99644.00;;;;5071053;28;20508;-65
2024/01/29 02:56:00;;;;;;;10.13;5.93;;;;;1.40;99648.00;;;;5071832;28;20051;-65
2024/01/29 02:58:26;;;;;;;8.52;5.95;;;;;1.40;99649.00;;;;5072999;28;20413;-65
2024/01/29 03:00:53;;;;;;;10.75;6.22;;;;;1.40;99651.00;;;;5073092;28;20040;-65
2024/01/29 03:03:20;;;;;;;10.55;6.03;;;;;1.40;99647.00;;;;5072832;28;20106;-66
2024/01/29 03:05:47;;;;;;;9.35;6.53;;;;;1.40;99644.00;;;;5072504;28;20120;-65
2024/01/29 03:08:13;;;;;;;10.82;5.68;;;;;1.40;99644.00;;;;5072500;28;20044;-65
2024/01/29 03:10:40;;;;;;;9.15;5.95;;;;;1.50;99644.00;;;;5072363;28;20060;-66
2024/01/29 03:13:06;;;;;;;8.00;5.78;;;;;1.40;99642.00;;;;5072554;28;20044;-66
2024/01/29 03:15:33;;;;;;;8.65;5.30;;;;;1.40;99651.00;;;;5070572;28;20497;-66
2024/01/29 03:18:00;;;;;;;7.63;5.72;;;;;1.30;99644.00;;;;5071303;28;20044;-66
2024/01/29 03:20:27;;;;;;;9.13;6.20;;;;;1.30;99648.00;;;;5071081;28;20052;-65
2024/01/29 03:22:53;;;;;;;8.00;5.57;;;;;1.30;99646.00;;;;5071214;28;20122;-65
2024/01/29 03:25:20;;;;;;;9.25;6.35;;;;;1.30;99651.00;;;;5070209;28;20086;-66
2024/01/29 03:27:47;;;;;;;8.55;6.03;;;;;1.30;99638.00;;;;5070946;28;20094;-65
2024/01/29 03:30:13;;;;;;;9.82;6.53;;;;;1.30;99645.00;;;;5072323;28;20674;-65
2024/01/29 03:32:40;;;;;;;10.23;6.68;;;;;1.30;99637.00;;;;5072600;28;20041;-65
2024/01/29 03:35:08;;;;;;;11.75;6.45;;;;;1.30;99642.00;;;;5070668;28;20168;-65
2024/01/29 03:37:34;;;;;;;11.77;6.18;;;;;1.20;99642.00;;;;5072717;28;20079;-65
2024/01/29 03:40:04;;;;;;;10.38;6.85;;;;;1.20;99642.00;;;;5072740;28;20048;-66
2024/01/29 03:42:31;;;;;;;9.85;5.45;;;;;1.30;99635.00;;;;5072160;28;20379;-66
2024/01/29 03:44:57;;;;;;;7.00;4.93;;;;;1.40;99635.00;;;;5071885;28;20497;-65
2024/01/29 03:47:24;;;;;;;7.95;5.22;;;;;1.40;99632.00;;;;5072371;28;20127;-65
2024/01/29 03:49:51;;;;;;;10.75;6.15;;;;;1.30;99637.00;;;;5072163;28;20101;-65
2024/01/29 03:52:18;;;;;;;7.85;5.55;;;;;1.30;99639.00;;;;5072355;28;20076;-65
2024/01/29 03:54:44;;;;;;;10.40;5.85;;;;;1.30;99625.00;;;;5070712;28;20557;-65
2024/01/29 03:57:11;;;;;;;7.97;5.60;;;;;1.30;99638.00;;;;5070435;28;20067;-65
2024/01/29 03:59:37;;;;;;;7.97;5.32;;;;;1.30;99640.00;;;;5071856;28;20573;-65
2024/01/29 04:02:04;;;;;;;9.95;6.28;;;;;1.30;99649.00;;;;5071791;28;20486;-65
2024/01/29 04:04:31;;;;;;;10.40;6.28;;;;;1.40;99639.00;;;;5071367;28;20096;-65
2024/01/29 04:06:58;;;;;;;10.52;6.55;;;;;1.50;99644.00;;;;5071494;28;20049;-65
2024/01/29 04:09:25;;;;;;;10.15;6.50;;;;;1.50;99642.00;;;;5075013;28;20159;-65
2024/01/29 04:11:52;;;;;;;9.95;5.95;;;;;1.60;99637.00;;;;5075442;28;20045;-65
2024/01/29 04:14:18;;;;;;;11.13;6.60;;;;;1.50;99643.00;;;;5074996;28;20044;-65
2024/01/29 04:16:49;;;;;;;9.57;6.80;;;;;1.50;99648.00;;;;5074184;28;20056;-65
2024/01/29 04:19:15;;;;;;;10.98;6.82;;;;;1.50;99640.00;;;;5075620;28;20102;-65
2024/01/29 04:21:43;;;;;;;8.90;6.45;;;;;1.40;99637.00;;;;5075699;28;20485;-65
2024/01/29 04:24:11;;;;;;;11.43;6.57;;;;;1.30;99639.00;;;;5075075;28;20067;-65
2024/01/29 04:26:40;;;;;;;9.73;6.07;;;;;1.30;99636.00;;;;5075173;28;20131;-65
2024/01/29 04:29:08;;;;;;;12.40;7.13;;;;;1.20;99639.00;;;;5057583;28;20052;-65
2024/01/29 04:31:38;;;;;;;8.30;5.70;;;;;1.30;99639.00;;;;5075579;28;20036;-65
2024/01/29 04:34:05;;;;;;;9.60;6.90;;;;;1.20;99628.00;;;;5073284;28;20585;-65
2024/01/29 04:36:32;;;;;;;10.02;6.50;;;;;1.20;99631.00;;;;5075285;28;20044;-65
2024/01/29 04:38:59;;;;;;;12.13;7.35;;;;;1.20;99634.00;;;;5074230;28;20040;-66
2024/01/29 04:41:26;;;;;;;14.60;7.45;;;;;1.10;99627.00;;;;5075087;28;20120;-65
2024/01/29 04:43:52;;;;;;;10.68;6.68;;;;;1.10;99623.00;;;;5074445;28;20072;-65
2024/01/29 04:46:19;;;;;;;11.38;7.13;;;;;1.10;99635.00;;;;5075637;28;20377;-65
2024/01/29 04:48:45;;;;;;;11.48;7.05;;;;;1.20;99632.00;;;;5073936;28;20048;-65
2024/01/29 04:51:12;;;;;;;22.48;13.18;;;;;1.30;99631.00;;;;5074948;28;20036;-65
2024/01/29 04:53:39;;;;;;;13.82;8.88;;;;;1.30;99638.00;;;;5073112;28;20047;-65
2024/01/29 04:56:07;;;;;;;15.73;8.00;;;;;1.30;99641.00;;;;5073895;28;20110;-67
2024/01/29 04:58:33;;;;;;;8.95;6.75;;;;;1.30;99629.00;;;;5074754;28;20076;-66
2024/01/29 05:01:01;;;;;;;10.45;6.82;;;;;1.40;99629.00;;;;5075021;28;20059;-65
2024/01/29 05:03:28;;;;;;;12.02;7.53;;;;;1.30;99626.00;;;;5073238;28;20048;-65
2024/01/29 05:05:55;;;;;;;10.57;6.93;;;;;1.30;99627.00;;;;5074917;28;20049;-65
2024/01/29 05:08:22;;;;;;;10.35;7.25;;;;;1.30;99621.00;;;;5074461;28;20439;-65
2024/01/29 05:10:49;;;;;;;10.43;7.20;;;;;1.40;99617.00;;;;5072783;28;20048;-64
2024/01/29 05:13:16;;;;;;;11.60;6.93;;;;;1.40;99622.00;;;;5074485;28;20101;-65
2024/01/29 05:15:43;;;;;;;10.70;6.38;;;;;1.40;99620.00;;;;5072536;28;20139;-66
2024/01/29 05:18:11;;;;;;;8.38;7.00;;;;;1.30;99618.00;;;;5074503;28;20048;-65
2024/01/29 05:20:37;;;;;;;11.93;7.00;;;;;1.20;99618.00;;;;5072838;28;20465;-65
2024/01/29 05:23:04;;;;;;;10.05;7.05;;;;;1.20;99628.00;;;;5074532;28;20404;-65
2024/01/29 05:25:31;;;;;;;9.77;7.00;;;;;1.20;99626.00;;;;5073667;28;20040;-65
2024/01/29 05:27:58;;;;;;;10.38;7.40;;;;;1.20;99626.00;;;;5074125;28;20105;-67
2024/01/29 05:30:25;;;;;;;10.88;7.97;;;;;1.20;99634.00;;;;5072906;28;20061;-67
2024/01/29 05:32:51;;;;;;;10.02;7.45;;;;;1.20;99634.00;;;;5072642;28;20037;-66
2024/01/29 05:35:18;;;;;;;10.93;7.00;;;;;1.30;99637.00;;;;5072194;28;20052;-66
2024/01/29 05:37:45;;;;;;;13.25;7.10;;;;;1.40;99638.00;;;;5073970;28;20044;-66
2024/01/29 05:40:11;;;;;;;8.10;6.47;;;;;1.50;99634.00;;;;5073651;28;20440;-66
2024/01/29 05:42:39;;;;;;;10.25;6.93;;;;;1.40;99645.00;;;;5073971;28;20068;-65
2024/01/29 05:45:06;;;;;;;32.15;17.83;;;;;1.40;99646.00;;;;5071866;28;20135;-66
2024/01/29 05:47:33;;;;;;;13.52;9.13;;;;;1.40;99640.00;;;;5073709;28;20497;-65
2024/01/29 05:50:01;;;;;;;10.68;6.78;;;;;1.50;99653.00;;;;5072650;28;20049;-65
2024/01/29 05:52:28;;;;;;;14.85;7.47;;;;;1.60;99644.00;;;;5073680;28;20037;-65
2024/01/29 05:54:55;;;;;;;10.50;7.07;;;;;1.70;99644.00;;;;5073264;28;20041;-65
2024/01/29 05:57:22;;;;;;;10.93;7.07;;;;;1.70;99649.00;;;;5073746;28;20044;-66
2024/01/29 05:59:49;;;;;;;9.55;6.47;;;;;1.70;99659.00;;;;5073307;28;20041;-66
2024/01/29 06:02:15;;;;;;;10.88;6.80;;;;;1.80;99661.00;;;;5072229;28;20048;-65
2024/01/29 06:04:42;;;;;;;13.40;7.05;;;;;1.70;99667.00;;;;5073030;28;20130;-65
2024/01/29 06:07:09;;;;;;;11.13;7.30;;;;;1.70;99658.00;;;;5073295;28;20044;-66
2024/01/29 06:09:36;;;;;;;12.27;7.47;;;;;1.60;99664.00;;;;5073115;28;20559;-66
2024/01/29 06:12:03;;;;;;;9.35;7.40;;;;;1.60;99669.00;;;;5073199;28;20123;-66
2024/01/29 06:14:31;;;;;;;14.30;7.72;;;;;1.60;99672.00;;;;5073072;28;20090;-65
2024/01/29 06:16:58;;;;;;;9.82;7.22;;;;;1.70;99672.00;;;;5073806;28;20154;-66
2024/01/29 06:19:25;;;;;;;11.75;6.90;;;;;1.80;99666.00;;;;5073903;28;20102;-66
2024/01/29 06:21:52;;;;;;;10.50;7.38;;;;;1.80;99667.00;;;;5074323;28;20045;-65
2024/01/29 06:24:19;;;;;;;14.75;8.60;;;;;1.90;99665.00;;;;5072628;28;20048;-66
2024/01/29 06:26:45;;;;;;;14.23;8.55;;;;;1.90;99675.00;;;;5074104;28;20150;-66
2024/01/29 06:29:14;;;;;;;11.75;7.43;;;;;1.80;99672.00;;;;5073920;28;20051;-65
2024/01/29 06:31:41;;;;;;;11.20;7.63;;;;;1.90;99685.00;;;;5072600;28;20044;-66
2024/01/29 06:34:08;;;;;;;9.57;7.32;;;;;1.90;99685.00;;;;5072313;28;20131;-65
2024/01/29 06:36:35;;;;;;;13.65;8.15;;;;;1.90;99678.00;;;;5073072;28;20071;-66
2024/01/29 06:39:02;;;;;;;11.98;7.88;;;;;1.90;99687.00;;;;5072878;28;20131;-66
2024/01/29 06:41:29;;;;;;;14.93;8.40;;;;;1.90;99688.00;;;;5073100;28;20047;-67
2024/01/29 06:43:56;;;;;;;11.10;7.45;;;;;1.90;99701.00;;;;5072144;28;20053;-65
2024/01/29 06:46:23;;;;;;;12.30;8.68;;;;;1.90;99689.00;;;;5072439;28;20539;-65
2024/01/29 06:48:49;;;;;;;11.32;7.25;;;;;1.90;99689.00;;;;5073248;28;20099;-66
2024/01/29 06:51:16;;;;;;;11.57;7.45;;;;;1.90;99688.00;;;;5072078;28;20417;-66
2024/01/29 06:53:44;;;;;;;10.45;7.65;;;;;1.90;99703.00;;;;5072226;28;20046;-66
2024/01/29 06:56:10;;;;;;;13.90;9.10;;;;;1.90;99700.00;;;;5073128;28;20047;-66
2024/01/29 06:58:37;;;;;;;12.05;8.07;;;;;1.90;99700.00;;;;5072789;28;20045;-65
2024/01/29 07:01:04;;;;;;;11.98;8.30;;;;;1.90;99703.00;;;;5072387;28;20050;-67
2024/01/29 07:03:31;;;;;;;16.25;9.38;;;;;1.90;99703.00;;;;5071973;28;20119;-65
2024/01/29 07:05:58;;;;;;;12.25;8.60;;;;;1.90;99703.00;;;;5071708;28;20044;-65
2024/01/29 07:08:25;;;;;;;15.35;8.65;;;;;1.90;99714.00;;;;5072472;28;20044;-66
2024/01/29 07:10:52;;;;;;;15.43;9.77;;;;;1.90;99705.00;;;;5072200;28;20127;-65
2024/01/29 07:13:18;;;;;;;20.17;10.68;;;;;2.00;99715.00;;;;5072137;28;20082;-65
2024/01/29 07:15:45;;;;;;;18.52;10.48;;;;;2.00;99715.00;;;;5070512;28;20055;-65
2024/01/29 07:18:12;;;;;;;14.85;8.85;;;;;2.00;99714.00;;;;5071375;28;20072;-65
2024/01/29 07:20:40;;;;;;;16.33;8.88;;;;;2.00;99714.00;;;;5073130;28;20040;-65
2024/01/29 07:23:07;;;;;;;16.75;11.57;;;;;2.00;99718.00;;;;5072571;28;20049;-67
2024/01/29 07:25:35;;;;;;;15.02;9.95;;;;;2.10;99716.00;;;;5071747;28;20053;-66
2024/01/29 07:28:05;;;;;;;13.55;8.93;;;;;2.10;99722.00;;;;5072314;28;20079;-66
2024/01/29 07:30:32;;;;;;;13.52;8.57;;;;;2.10;99728.00;;;;5072003;28;20040;-66
2024/01/29 07:32:59;;;;;;;13.88;8.32;;;;;2.00;99734.00;;;;5070952;28;20044;-64
2024/01/29 07:35:27;;;;;;;13.13;8.02;;;;;2.00;99737.00;;;;5072189;28;20181;-64
2024/01/29 07:37:53;;;;;;;12.68;8.55;;;;;2.00;99737.00;;;;5076958;28;20516;-64
2024/01/29 07:40:20;;;;;;;12.65;8.13;;;;;1.80;99737.00;;;;5079093;28;20052;-64
2024/01/29 07:42:47;;;;;;;14.15;8.98;;;;;1.70;99742.00;;;;5077128;28;20044;-64
2024/01/29 07:45:15;;;;;;;12.55;7.97;;;;;1.80;99745.00;;;;5078266;28;20044;-65
2024/01/29 07:47:41;;;;;;;15.55;8.85;;;;;1.80;99742.00;;;;5079110;28;20048;-64
2024/01/29 07:50:08;;;;;;;12.15;8.18;;;;;1.90;99747.00;;;;5079882;28;20044;-66
2024/01/29 07:52:36;;;;;;;14.02;8.30;;;;;1.90;99745.00;;;;5075779;28;20041;-66
2024/01/29 07:55:03;;;;;;;14.85;9.07;;;;;2.10;99754.00;;;;5076121;28;20048;-66
2024/01/29 07:57:30;;;;;;;12.00;8.50;;;;;2.20;99752.00;;;;5078371;28;20055;-65
2024/01/29 07:59:57;;;;;;;11.27;7.97;;;;;2.10;99752.00;;;;5081060;28;20148;-64
2024/01/29 08:02:23;;;;;;;11.80;7.93;;;;;2.20;99746.00;;;;5077701;28;20521;-65
2024/01/29 08:04:50;;;;;;;12.65;7.55;;;;;2.20;99747.00;;;;5075064;28;20041;-64
2024/01/29 08:07:17;;;;;;;12.63;8.48;;;;;2.20;99756.00;;;;5075789;28;20048;-64
2024/01/29 08:09:45;;;;;;;36.15;19.83;;;;;2.30;99749.00;;;;5074527;28;20076;-63
2024/01/29 08:12:11;;;;;;;15.30;8.98;;;;;2.30;99756.00;;;;5074226;28;20043;-64
2024/01/29 08:14:38;;;;;;;15.13;8.45;;;;;2.40;99752.00;;;;5057201;28;20139;-64
2024/01/29 08:17:06;;;;;;;12.88;8.32;;;;;2.50;99756.00;;;;5075788;28;20117;-64
2024/01/29 08:19:33;;;;;;;14.77;9.02;;;;;2.50;99758.00;;;;5075850;28;20047;-64
2024/01/29 08:22:00;;;;;;;14.60;8.27;;;;;2.40;99756.00;;;;5074195;28;20524;-64
2024/01/29 08:24:27;;;;;;;11.60;8.18;;;;;2.40;99754.00;;;;5074902;28;20045;-64
2024/01/29 08:26:53;;;;;;;13.80;8.52;;;;;2.50;99753.00;;;;5075361;28;20052;-64
2024/01/29 08:29:20;;;;;;;14.38;9.10;;;;;2.50;99755.00;;;;5075225;28;20044;-64
2024/01/29 08:31:47;;;;;;;15.70;8.85;;;;;2.50;99760.00;;;;5075478;28;20044;-67
2024/01/29 08:34:14;;;;;;;13.82;9.27;;;;;2.60;99764.00;;;;5073268;28;20139;-65
2024/01/29 08:36:40;;;;;;;12.95;8.82;;;;;2.60;99762.00;;;;5075305;28;20052;-65
2024/01/29 08:39:07;;;;;;;13.80;8.57;;;;;2.70;99769.00;;;;5075275;28;20517;-65
2024/01/29 08:41:34;;;;;;;14.70;8.88;;;;;2.60;99757.00;;;;5073826;28;20067;-64
2024/01/29 08:44:03;;;;;;;13.13;8.45;;;;;2.70;99763.00;;;;5074688;28;20045;-65
2024/01/29 08:46:29;;;;;;;16.33;8.50;;;;;2.80;99764.00;;;;5075723;28;20045;-65
2024/01/29 08:48:56;;;;;;;13.98;9.27;;;;;2.90;99764.00;;;;5075267;28;20044;-66
2024/01/29 08:51:23;;;;;;;15.50;9.63;;;;;3.00;99767.00;;;;5075166;28;20048;-65
2024/01/29 08:53:50;;;;;;;16.48;10.35;;;;;3.10;99764.00;;;;5073543;28;20045;-64
2024/01/29 08:56:17;;;;;;;20.95;10.52;;;;;3.20;99768.00;;;;5074741;28;20087;-67
2024/01/29 08:58:44;;;;;;;14.77;10.00;;;;;3.40;99769.00;;;;5074582;28;20045;-65
2024/01/29 09:01:11;;;;;;;14.75;10.70;;;;;3.50;99769.00;;;;5074542;28;20127;-65
2024/01/29 09:03:38;;;;;;;17.23;10.93;;;;;3.60;99769.00;;;;5073957;28;20120;-65
2024/01/29 09:06:08;;;;;;;19.73;10.57;;;;;3.60;99771.00;;;;5073988;28;20053;-66
2024/01/29 09:08:36;;;;;;;18.60;10.70;;;;;3.80;99766.00;;;;5073716;28;20667;-65
2024/01/29 09:11:03;;;;;;;18.42;10.60;;;;;3.90;99771.00;;;;5073460;28;20052;-65
2024/01/29 09:13:29;;;;;;;18.35;11.98;;;;;3.90;99777.00;;;;5074041;28;20048;-65
2024/01/29 09:15:56;;;;;;;16.30;10.75;;;;;4.00;99771.00;;;;5073193;28;20563;-65
2024/01/29 09:18:23;;;;;;;16.98;11.00;;;;;4.20;99776.00;;;;5073225;28;20048;-65
2024/01/29 09:20:50;;;;;;;21.42;11.32;;;;;4.30;99774.00;;;;5074547;28;20119;-66
2024/01/29 09:23:16;;;;;;;18.15;11.02;;;;;4.40;99769.00;;;;5074331;28;20037;-66
2024/01/29 09:25:43;;;;;;;17.70;11.15;;;;;4.70;99780.00;;;;5072522;28;20045;-66
2024/01/29 09:28:09;;;;;;;16.27;10.30;;;;;4.80;99781.00;;;;5074336;28;20074;-65
2024/01/29 09:30:36;;;;;;;19.77;10.52;;;;;5.10;99780.00;;;;5074328;28;20066;-66
2024/01/29 09:33:03;;;;;;;17.95;11.00;;;;;5.20;99787.00;;;;5072972;28;20663;-67
2024/01/29 09:35:44;;;;;;;19.20;11.48;;;;;5.30;99790.00;;;;5073619;28;20071;-65
2024/01/29 09:38:10;;;;;;;19.90;11.10;;;;;5.50;99791.00;;;;5072745;28;20079;-66
2024/01/29 09:40:37;;;;;;;18.08;12.52;;;;;5.70;99793.00;;;;5074074;28;20055;-66
2024/01/29 09:43:05;;;;;;;22.00;12.05;;;;;5.80;99798.00;;;;5073842;28;20421;-65
2024/01/29 09:45:35;;;;;;;18.48;10.43;;;;;5.80;99798.00;;;;5073529;28;20106;-65
2024/01/29 09:48:04;;;;;;;16.65;11.07;;;;;5.90;99789.00;;;;5073647;28;20110;-66
2024/01/29 09:50:34;;;;;;;13.60;9.35;;;;;6.00;99776.00;;;;5073686;28;20091;-66
2024/01/29 09:53:02;;;;;;;12.88;9.73;;;;;6.10;99790.00;;;;5072394;28;20480;-65
2024/01/29 09:55:29;;;;;;;10.73;7.65;;;;;6.10;99790.00;;;;5073034;28;20045;-66
2024/01/29 09:57:56;;;;;;;10.30;8.40;;;;;6.20;99796.00;;;;5072417;28;20488;-67
2024/01/29 10:00:23;;;;;;;10.52;8.27;;;;;6.30;99794.00;;;;5074201;28;20465;-66
2024/01/29 10:02:53;;;;;;;12.88;8.25;;;;;6.50;99788.00;;;;5073870;28;20170;-66
2024/01/29 10:05:20;;;;;;;12.43;8.18;;;;;6.60;99790.00;;;;5072292;28;20044;-66
2024/01/29 10:07:49;;;;;;;14.77;8.23;;;;;6.70;99791.00;;;;5073290;28;20044;-66
2024/01/29 10:10:18;;;;;;;9.63;8.02;;;;;6.80;99789.00;;;;5074282;28;20048;-65
2024/01/29 10:12:45;;;;;;;15.23;8.40;;;;;7.00;99790.00;;;;5073800;28;20094;-66
2024/01/29 10:15:12;;;;;;;10.82;8.05;;;;;7.10;99807.00;;;;5078236;28;20121;-66
2024/01/29 10:17:39;;;;;;;11.95;8.32;;;;;7.10;99796.00;;;;5075674;28;20040;-66
2024/01/29 10:20:19;;;;;;;11.45;8.13;;;;;7.20;99802.00;;;;5077067;28;20044;-71
2024/01/29 10:22:46;;;;;;;10.77;8.18;;;;;7.30;99798.00;;;;5080196;28;20063;-66
2024/01/29 10:25:14;;;;;;;13.23;8.43;;;;;7.40;99799.00;;;;5085744;28;20106;-65
2024/01/29 10:27:47;;;;;;;12.75;8.43;;;;;7.70;99800.00;;;;5083322;28;20379;-65
2024/01/29 10:30:14;;;;;;;14.07;8.82;;;;;7.90;99796.00;;;;5082121;28;20055;-65
2024/01/29 10:32:41;;;;;;;14.32;8.63;;;;;8.00;99794.00;;;;5080479;28;20075;-66
2024/01/29 10:35:08;;;;;;;15.25;9.02;;;;;8.20;99790.00;;;;5079420;28;20127;-65
2024/01/29 10:37:34;;;;;;;12.00;9.20;;;;;8.40;99786.00;;;;5079982;28;20052;-66
2024/01/29 10:40:04;;;;;;;12.98;9.65;;;;;8.60;99789.00;;;;5079811;28;20644;-65
2024/01/29 10:42:31;;;;;;;17.10;11.52;;;;;8.70;99785.00;;;;5078450;28;20073;-66
2024/01/29 10:45:00;;;;;;;15.02;10.30;;;;;8.90;99783.00;;;;5077207;28;20045;-66
2024/01/29 10:47:35;;;;;;;15.45;9.45;;;;;9.10;99788.00;;;;5075508;28;20036;-65
2024/01/29 10:50:02;;;;;;;13.85;9.45;;;;;9.30;99776.00;;;;5076877;28;20528;-65
2024/01/29 10:52:29;;;;;;;11.90;8.90;;;;;9.40;99778.00;;;;5075137;28;20060;-65
2024/01/29 10:54:57;;;;;;;13.73;9.07;;;;;9.50;99772.00;;;;5074126;28;20383;-65
2024/01/29 10:57:25;;;;;;;14.77;10.15;;;;;9.60;99782.00;;;;5075992;28;20036;-66
2024/01/29 10:59:52;;;;;;;11.82;8.90;;;;;9.80;99776.00;;;;5075841;28;20045;-65
2024/01/29 11:02:19;;;;;;;12.55;8.48;;;;;9.90;99772.00;;;;5077286;28;20053;-65
2024/01/29 11:04:46;;;;;;;14.85;8.80;;;;;10.00;99769.00;;;;5074337;28;20040;-66
2024/01/29 11:07:18;;;;;;;13.52;8.45;;;;;10.10;99779.00;;;;5076036;28;20159;-65
2024/01/29 11:10:08;;;;;;;15.75;9.00;;;;;10.20;99780.00;;;;5076883;28;20131;-65
2024/01/29 11:12:37;;;;;;;13.55;8.60;;;;;10.30;99781.00;;;;5081142;28;20037;-66
2024/01/29 11:15:04;;;;;;;12.77;8.85;;;;;10.40;99773.00;;;;5079147;28;20053;-65
2024/01/29 11:17:31;;;;;;;13.52;8.63;;;;;10.50;99777.00;;;;5076425;28;20532;-64
2024/01/29 11:20:02;;;;;;;15.38;8.63;;;;;10.60;99767.00;;;;5073094;28;20048;-65
2024/01/29 11:22:36;;;;;;;17.17;8.77;;;;;10.70;99762.00;;;;5069444;28;20128;-66
2024/01/29 11:25:14;;;;;;;11.70;8.48;;;;;10.80;99765.00;;;;5068813;28;20052;-66
2024/01/29 11:27:43;;;;;;;10.45;8.07;;;;;11.00;99757.00;;;;5067254;28;20087;-66
2024/01/29 11:30:14;;;;;;;11.60;8.63;;;;;11.10;99761.00;;;;5068782;28;20048;-66
2024/01/29 11:32:41;;;;;;;13.32;7.85;;;;;11.20;99756.00;;;;5068518;28;20044;-65
2024/01/29 11:35:15;;;;;;;10.93;7.40;;;;;11.30;99752.00;;;;5068183;28;20044;-67
2024/01/29 11:37:50;;;;;;;8.60;6.68;;;;;11.40;99750.00;;;;5061284;28;20049;-66
2024/01/29 11:40:30;;;;;;;10.23;7.15;;;;;11.60;99750.00;;;;5053983;28;20059;-67
2024/01/29 11:42:57;;;;;;;14.20;7.53;;;;;11.70;99752.00;;;;5055098;28;20123;-66
2024/01/29 11:45:25;;;;;;;13.80;9.02;;;;;11.80;99754.00;;;;5053968;28;20559;-67
2024/01/29 11:47:52;;;;;;;12.95;8.10;;;;;11.90;99747.00;;;;5053538;28;20041;-65
2024/01/29 11:50:18;;;;;;;11.15;7.72;;;;;12.00;99741.00;;;;5054796;28;20512;-65
2024/01/29 11:52:45;;;;;;;11.88;7.43;;;;;12.10;99739.00;;;;5055575;28;20069;-65
2024/01/29 11:55:21;;;;;;;15.00;9.25;;;;;12.20;99737.00;;;;5044484;28;20049;-66
2024/01/29 11:57:52;;;;;;;16.55;9.32;;;;;12.30;99740.00;;;;5062139;28;20037;-64
2024/01/29 12:00:19;;;;;;;13.60;7.50;;;;;12.50;99743.00;;;;5059966;28;20098;-66
2024/01/29 12:02:50;;;;;;;11.95;7.55;;;;;12.60;99744.00;;;;5058649;28;20092;-67
2024/01/29 12:05:17;;;;;;;14.70;7.30;;;;;12.70;99736.00;;;;5059797;28;20037;-66
2024/01/29 12:07:48;;;;;;;9.63;6.95;;;;;12.90;99737.00;;;;5060790;28;20041;-66
2024/01/29 12:10:18;;;;;;;9.38;5.25;;;;;12.90;99733.00;;;;5061867;28;20055;-66
2024/01/29 12:12:45;;;;;;;7.90;4.60;;;;;13.00;99741.00;;;;5065573;28;20452;-66
2024/01/29 12:15:12;;;;;;;8.52;5.88;;;;;13.00;99732.00;;;;5065197;28;20073;-65
2024/01/29 12:17:44;;;;;;;7.60;5.00;;;;;13.20;99740.00;;;;5063339;28;20068;-65
2024/01/29 12:20:12;;;;;;;7.20;5.07;;;;;13.20;99736.00;;;;5061179;28;20390;-66